CYWJ

Déline Airport

Déline, Northwest Territories, Canada
TAF CYWJ 221511Z 2215/2224 29012KT P6SM -SN BKN030 TEMPO 2215/2221 5SM -SN OVC020 FM222100 30012KT P6SM SCT030 TEMPO 2221/2223 P6SM -SN BKN020 RMK NXT FCST BY 221800Z
Issued Valid From Valid To
Jan-22 @ 15:11 UTC
(2 hours ago)
Jan-22 @ 15:00 UTC
(3 hours ago)
Jan-23 @ 00:00 UTC
(in 6 hours)
Jan-22 @ 15:00 to Jan-22 @ 21:00
TAF CYWJ 221511Z 2215/2224 29012KT P6SM -SN BKN030
Wind Visibility Clouds Conditions
290° at 12 knots Greater than 6 miles
  • Broken at 3,000' AGL
  • Light Snow
Temporary Jan-22 @ 15:00 to Jan-22 @ 21:00
TEMPO 2215/2221 5SM -SN OVC020
Visibility Clouds Conditions
5 miles
  • Overcast at 2,000' AGL
  • Light Snow
Temporary Jan-22 @ 21:00 to Jan-22 @ 23:00
TEMPO 2221/2223 P6SM -SN BKN020 RMK NXT FCST BY 221800Z
Visibility Clouds Conditions
Greater than 6 miles
  • Broken at 2,000' AGL
  • Light Snow
From Jan-22 @ 21:00 to Jan-23 @ 00:00
FM222100 30012KT P6SM SCT030
Wind Visibility Clouds
300° at 12 knots Greater than 6 miles
  • Scattered at 3,000' AGL
TAF CYWJ 221511Z 2215/2224 29012KT P6SM -SN BKN030 TEMPO 2215/2221 5SM -SN OVC020 FM222100 30012KT P6SM SCT030 TEMPO 2221/2223 P6SM -SN BKN020 RMK NXT FCST BY 221800Z
Issued Jan-22 @ 15:11 UTC
(2 hours ago)
Valid From Jan-22 @ 15:00 UTC
(3 hours ago)
Valid To Jan-23 @ 00:00 UTC
(in 6 hours)
Jan-22 @ 15:00 - Jan-22 @ 21:00
Wind Visibility
290° at 12 knots Greater than 6 miles
Clouds
  • Broken at 3,000' AGL
Conditions
  • Light Snow
Temporary Jan-22 @ 15:00 - Jan-22 @ 21:00
Clouds
  • Overcast at 2,000' AGL
Conditions
  • Light Snow
Temporary Jan-22 @ 21:00 - Jan-22 @ 23:00
Clouds
  • Broken at 2,000' AGL
Conditions
  • Light Snow
From Jan-22 @ 21:00 - Jan-23 @ 00:00
Wind Visibility
300° at 12 knots Greater than 6 miles
Clouds
  • Scattered at 3,000' AGL